Time;durP1;ratioP1;P1;durP2;ratioP2;P2;SDS_P1;SDS_P2;PMS_P1;PMS_P2;Temp;Humidity;BMP_temperature;BMP_pressure;BME280_temperature;BME280_humidity;BME280_pressure;Samples;Min_cycle;Max_cycle;Signal;HPM_P1;HPM_P2
2022/12/28 00:01:10;;;;;;;10.80;4.72;;;;;;;2.85;89.66;99235.81;5041743;28;20037;-77
2022/12/28 00:03:36;;;;;;;8.43;4.07;;;;;;;2.87;89.86;99244.34;5024499;28;20070;-78
2022/12/28 00:06:02;;;;;;;12.38;4.18;;;;;;;2.94;89.40;99241.75;5045363;28;20477;-77
2022/12/28 00:08:28;;;;;;;7.50;4.07;;;;;;;2.97;89.11;99238.75;5045485;28;20032;-77
2022/12/28 00:11:01;;;;;;;9.55;4.45;;;;;;;2.95;89.61;99232.81;5014502;28;20171;-77
2022/12/28 00:13:29;;;;;;;8.73;4.78;;;;;;;3.00;89.33;99233.09;5048740;28;20044;-78
2022/12/28 00:15:54;;;;;;;8.48;4.68;;;;;;;2.98;89.13;99220.09;5045478;28;20663;-78
2022/12/28 00:18:19;;;;;;;8.45;4.45;;;;;;;2.95;89.29;99215.19;5028437;28;20109;-77
2022/12/28 00:20:55;;;;;;;19.77;6.57;;;;;;;2.98;89.70;99220.09;5031749;28;20044;-77
2022/12/28 00:23:20;;;;;;;7.88;4.78;;;;;;;2.92;88.54;99214.78;5044382;28;20036;-77
2022/12/28 00:25:46;;;;;;;8.63;4.50;;;;;;;2.98;88.86;99214.00;5046951;28;20029;-78
2022/12/28 00:28:11;;;;;;;6.95;3.33;;;;;;;2.99;89.23;99205.09;5046361;28;20125;-78
2022/12/28 00:30:36;;;;;;;8.57;5.07;;;;;;;3.00;89.50;99196.16;5011790;28;20120;-78
2022/12/28 00:33:02;;;;;;;11.05;4.03;;;;;;;3.03;88.67;99196.63;5039165;28;20028;-78
2022/12/28 00:35:27;;;;;;;8.00;4.40;;;;;;;3.03;89.18;99193.16;5024306;28;20029;-78
2022/12/28 00:37:52;;;;;;;9.95;4.07;;;;;;;3.08;89.44;99200.50;5028639;28;20411;-78
2022/12/28 00:40:18;;;;;;;8.60;4.25;;;;;;;3.02;89.43;99194.16;5032038;28;20033;-77
2022/12/28 00:42:43;;;;;;;7.68;4.85;;;;;;;3.00;89.15;99191.72;5029441;28;20025;-77
2022/12/28 00:45:09;;;;;;;9.80;4.63;;;;;;;3.07;89.36;99185.69;5031942;28;20075;-77
2022/12/28 00:47:34;;;;;;;11.02;5.50;;;;;;;2.92;89.59;99173.41;5046904;28;20119;-77
2022/12/28 00:49:59;;;;;;;6.57;4.47;;;;;;;3.06;89.33;99181.44;5047749;28;20056;-77
2022/12/28 00:52:25;;;;;;;13.32;4.55;;;;;;;2.97;89.11;99162.31;5042791;28;20102;-77
2022/12/28 00:54:50;;;;;;;8.32;4.30;;;;;;;2.91;89.52;99163.88;5048087;28;20036;-76
2022/12/28 00:57:15;;;;;;;8.52;4.53;;;;;;;2.95;89.49;99174.84;5014772;28;20124;-77
2022/12/28 00:59:41;;;;;;;9.45;4.68;;;;;;;2.84;89.45;99168.25;5054423;28;20032;-77
2022/12/28 01:02:06;;;;;;;8.73;4.93;;;;;;;2.88;88.95;99156.31;5034480;28;20036;-78
2022/12/28 01:04:31;;;;;;;6.57;4.38;;;;;;;2.82;88.94;99154.47;5050540;28;20060;-78
2022/12/28 01:06:57;;;;;;;8.75;4.40;;;;;;;2.95;88.63;99148.47;5015276;28;20033;-78
2022/12/28 01:09:22;;;;;;;8.45;4.63;;;;;;;2.99;89.57;99136.56;5047948;28;20076;-78
2022/12/28 01:11:47;;;;;;;8.18;4.03;;;;;;;2.95;88.58;99130.00;5051515;28;20400;-78
2022/12/28 01:14:13;;;;;;;11.18;4.70;;;;;;;2.98;89.65;99127.81;5052817;28;20025;-77
2022/12/28 01:16:38;;;;;;;12.18;4.25;;;;;;;3.15;88.77;99124.88;5053033;28;20120;-77
2022/12/28 01:19:06;;;;;;;7.88;4.25;;;;;;;2.91;88.93;99115.59;5031568;28;20053;-77
2022/12/28 01:21:34;;;;;;;10.30;4.63;;;;;;;2.94;89.01;99113.41;5050068;28;20481;-77
2022/12/28 01:24:02;;;;;;;6.80;4.15;;;;;;;2.93;88.97;99103.84;5049173;28;20037;-77
2022/12/28 01:26:28;;;;;;;7.05;4.40;;;;;;;3.04;89.15;99094.59;5052625;28;20029;-77
2022/12/28 01:28:54;;;;;;;8.85;4.40;;;;;;;3.08;89.02;99097.66;5030992;28;20029;-77
2022/12/28 01:31:20;;;;;;;8.82;4.00;;;;;;;3.04;89.10;99097.22;5052365;28;20102;-77
2022/12/28 01:33:46;;;;;;;11.60;5.05;;;;;;;2.90;89.60;99091.09;5050963;28;20035;-77
2022/12/28 01:36:20;;;;;;;5.63;4.15;;;;;;;2.87;89.41;99074.81;5052308;28;20033;-77
2022/12/28 01:38:47;;;;;;;9.15;3.90;;;;;;;2.94;89.45;99087.03;5044673;28;20032;-77
2022/12/28 01:41:16;;;;;;;6.00;4.20;;;;;;;2.91;89.23;99078.69;5051472;28;20052;-78
2022/12/28 01:43:44;;;;;;;7.78;3.75;;;;;;;2.92;89.27;99083.78;5050397;28;20029;-78
2022/12/28 01:46:20;;;;;;;7.45;3.45;;;;;;;2.92;89.59;99061.88;5032390;28;20044;-78
2022/12/28 01:48:59;;;;;;;11.52;3.90;;;;;;;3.06;89.24;99062.78;5044369;28;20068;-78
2022/12/28 01:51:28;;;;;;;8.68;3.90;;;;;;;3.03;89.54;99056.88;5042105;28;20021;-78
2022/12/28 01:53:58;;;;;;;7.95;3.63;;;;;;;3.00;89.55;99038.81;5042841;28;20051;-78
2022/12/28 01:56:24;;;;;;;7.03;3.67;;;;;;;2.99;89.72;99045.06;5019409;28;20036;-78
2022/12/28 01:58:49;;;;;;;9.70;4.15;;;;;;;2.95;89.33;99017.47;5049591;28;20029;-77
2022/12/28 02:01:16;;;;;;;7.55;3.40;;;;;;;2.96;89.19;99013.03;5050126;28;20041;-79
2022/12/28 02:03:42;;;;;;;8.30;4.40;;;;;;;2.93;90.02;99019.50;5044440;28;20025;-79
2022/12/28 02:06:11;;;;;;;5.55;3.70;;;;;;;2.98;89.38;99018.91;5051970;28;20048;-79
2022/12/28 02:08:54;;;;;;;13.60;4.72;;;;;;;3.01;89.93;99027.25;5046573;28;20036;-79
2022/12/28 02:11:20;;;;;;;7.72;4.20;;;;;;;3.03;89.36;99017.34;5048863;28;20480;-79
2022/12/28 02:13:49;;;;;;;10.00;3.60;;;;;;;3.12;89.63;99020.63;5047294;28;20056;-79
2022/12/28 02:16:14;;;;;;;8.48;3.80;;;;;;;3.11;89.98;99018.97;5049231;28;20503;-79
2022/12/28 02:18:41;;;;;;;6.30;3.60;;;;;;;3.14;89.32;99005.41;5051711;28;20029;-79
2022/12/28 02:21:48;;;;;;;7.35;3.60;;;;;;;3.19;89.60;99002.19;5031716;28;20114;-79
2022/12/28 02:24:28;;;;;;;8.90;3.35;;;;;;;3.01;89.33;98987.69;5046892;28;20772;-79
2022/12/28 02:27:02;;;;;;;7.22;3.88;;;;;;;3.17;89.59;98991.03;5048165;28;20037;-79
2022/12/28 02:29:45;;;;;;;10.38;3.85;;;;;;;3.11;89.71;98989.16;5043354;28;20029;-79
2022/12/28 02:32:24;;;;;;;10.00;4.07;;;;;;;3.07;89.88;98974.75;5048311;28;20028;-79
2022/12/28 02:35:02;;;;;;;7.00;3.42;;;;;;;3.20;89.90;98977.44;5049616;28;20029;-78
2022/12/28 02:37:58;;;;;;;7.68;3.65;;;;;;;3.26;89.49;98974.00;5049663;28;20116;-78
2022/12/28 02:40:43;;;;;;;4.43;3.35;;;;;;;3.13;89.93;98955.50;5047924;28;20127;-78
2022/12/28 02:43:09;;;;;;;7.88;3.55;;;;;;;3.20;90.28;98959.78;5047684;28;20590;-78
2022/12/28 02:51:15;;;;;;;6.55;3.42;;;;;;;3.34;89.56;98958.00;5042730;28;20056;-78
2022/12/28 02:53:58;;;;;;;8.73;3.20;;;;;;;3.29;89.94;98961.22;5047917;28;20166;-78
2022/12/28 02:56:26;;;;;;;6.05;3.28;;;;;;;3.35;90.12;98967.53;5044542;28;20024;-78
2022/12/28 02:59:17;;;;;;;3.30;2.63;;;;;;;3.28;90.32;98971.97;5047396;28;20060;-78
2022/12/28 03:01:59;;;;;;;7.97;3.10;;;;;;;3.30;90.13;98965.47;5047136;28;20033;-78
2022/12/28 03:04:43;;;;;;;5.40;2.70;;;;;;;3.24;90.38;98955.72;5049955;28;20104;-78
2022/12/28 03:10:27;;;;;;;9.70;3.63;;;;;;;3.40;90.36;98950.09;5049682;28;20439;-78
2022/12/28 03:13:03;;;;;;;3.80;2.75;;;;;;;3.27;90.23;98947.44;5043414;28;20397;-79
2022/12/28 03:15:33;;;;;;;6.68;4.03;;;;;;;3.30;90.61;98952.28;5042321;28;20094;-79
2022/12/28 03:32:09;;;;;;;10.90;4.45;;;;;;;3.21;91.44;98898.09;5047505;28;20059;-78
2022/12/28 03:34:35;;;;;;;5.32;2.90;;;;;;;3.33;91.12;98922.06;5046599;28;20047;-78
2022/12/28 03:37:16;;;;;;;5.82;4.22;;;;;;;3.38;91.53;98915.19;5047939;28;20076;-78
2022/12/28 03:39:55;;;;;;;8.32;4.35;;;;;;;3.41;91.37;98909.50;5042734;28;20722;-78
2022/12/28 03:45:20;;;;;;;5.90;4.13;;;;;;;3.31;91.58;98882.72;5044425;28;20040;-79
2022/12/28 03:47:48;;;;;;;5.65;3.95;;;;;;;3.34;91.70;98882.28;5042448;28;20033;-78
2022/12/28 03:50:15;;;;;;;9.18;4.93;;;;;;;3.27;91.98;98891.22;5041339;28;20111;-78
2022/12/28 03:52:40;;;;;;;5.18;4.07;;;;;;;3.43;92.00;98881.09;5047459;28;20032;-78
2022/12/28 03:55:06;;;;;;;9.15;4.55;;;;;;;3.37;92.37;98875.81;5047513;28;20040;-79
2022/12/28 03:57:31;;;;;;;8.85;5.15;;;;;;;3.39;92.17;98873.78;5044485;28;20029;-78
2022/12/28 03:59:57;;;;;;;8.48;5.28;;;;;;;3.36;92.49;98863.66;5048361;28;20378;-79
2022/12/28 04:02:22;;;;;;;10.45;5.80;;;;;;;3.34;92.03;98855.91;5048958;28;20061;-79
2022/12/28 04:04:48;;;;;;;8.38;5.80;;;;;;;3.32;92.03;98836.06;5045862;28;20642;-79
2022/12/28 04:07:13;;;;;;;12.48;5.65;;;;;;;3.34;92.10;98834.03;5027171;28;20452;-79
2022/12/28 04:09:38;;;;;;;8.35;5.85;;;;;;;3.35;91.77;98828.53;5011224;28;20170;-79
2022/12/28 04:12:04;;;;;;;8.70;5.78;;;;;;;3.38;92.45;98833.44;5048512;28;20033;-79
2022/12/28 04:14:29;;;;;;;12.15;4.78;;;;;;;3.34;92.51;98824.28;5043460;28;20056;-80
2022/12/28 04:16:55;;;;;;;8.07;4.72;;;;;;;3.29;92.49;98810.91;5026600;28;20121;-79
2022/12/28 04:19:20;;;;;;;10.23;5.47;;;;;;;3.46;92.71;98821.84;5043252;28;20044;-78
2022/12/28 04:21:46;;;;;;;5.30;4.25;;;;;;;3.39;92.02;98810.47;5046030;28;20041;-78
2022/12/28 04:24:11;;;;;;;10.35;5.65;;;;;;;3.44;91.91;98819.41;5048353;28;20709;-78
2022/12/28 04:26:36;;;;;;;8.98;5.45;;;;;;;3.36;92.54;98802.97;5047889;28;20024;-78
2022/12/28 04:29:02;;;;;;;11.82;5.65;;;;;;;3.29;92.54;98796.88;5042199;28;20154;-78
2022/12/28 04:31:29;;;;;;;5.47;4.82;;;;;;;3.31;92.46;98803.59;5042172;28;20651;-78
2022/12/28 04:33:56;;;;;;;8.23;5.63;;;;;;;3.27;92.71;98793.66;5053647;28;20048;-78
2022/12/28 04:36:22;;;;;;;7.25;5.07;;;;;;;3.45;92.83;98788.56;5048027;28;20025;-78
2022/12/28 04:38:47;;;;;;;11.50;5.95;;;;;;;3.39;92.33;98789.38;5050376;28;20047;-78
2022/12/28 04:41:13;;;;;;;7.03;5.15;;;;;;;3.40;92.38;98796.28;5034088;28;20051;-80
2022/12/28 04:43:39;;;;;;;5.25;4.72;;;;;;;3.37;92.66;98775.56;5051343;28;20024;-80
2022/12/28 04:46:09;;;;;;;11.02;5.47;;;;;;;3.41;92.72;98768.88;5050351;28;20060;-79
2022/12/28 04:48:35;;;;;;;7.25;5.20;;;;;;;3.41;92.82;98750.41;5048109;28;20490;-79
2022/12/28 04:51:09;;;;;;;8.32;5.57;;;;;;;3.43;92.35;98754.47;5053318;28;20029;-79
2022/12/28 04:53:38;;;;;;;7.28;5.55;;;;;;;3.30;92.89;98741.28;5053748;28;20059;-80
2022/12/28 04:56:05;;;;;;;8.35;6.13;;;;;;;3.38;92.65;98722.63;5052254;28;20488;-79
2022/12/28 04:58:30;;;;;;;8.57;4.22;;;;;;;3.49;92.94;98742.28;5047843;28;20033;-79
2022/12/28 05:01:07;;;;;;;10.60;6.43;;;;;;;3.36;92.32;98729.13;5049924;28;20033;-79
2022/12/28 05:03:34;;;;;;;9.50;6.03;;;;;;;3.42;91.83;98737.03;5044368;28;20075;-79
2022/12/28 05:06:01;;;;;;;6.50;5.75;;;;;;;3.45;92.61;98727.91;5051472;28;20032;-79
2022/12/28 05:08:26;;;;;;;7.80;5.90;;;;;;;3.41;92.97;98724.84;5049964;28;20034;-78
2022/12/28 05:10:52;;;;;;;10.52;5.60;;;;;;;3.35;92.46;98704.56;5053342;28;20087;-78
2022/12/28 05:13:17;;;;;;;9.13;6.45;;;;;;;3.48;92.75;98720.38;5044807;28;20025;-78
2022/12/28 05:15:42;;;;;;;8.65;5.70;;;;;;;3.53;92.23;98720.56;5048076;28;20056;-78
2022/12/28 05:18:08;;;;;;;8.90;6.72;;;;;;;3.37;92.93;98704.34;5049811;28;20388;-78
2022/12/28 05:20:33;;;;;;;8.77;5.82;;;;;;;3.52;92.42;98715.47;5025081;28;20024;-78
2022/12/28 05:22:58;;;;;;;12.18;6.18;;;;;;;3.49;92.69;98719.38;5049875;28;20037;-78
2022/12/28 05:25:24;;;;;;;8.32;4.93;;;;;;;3.47;92.68;98707.41;5050108;28;20043;-78
2022/12/28 05:27:49;;;;;;;8.90;5.65;;;;;;;3.44;92.97;98697.25;5047545;28;20064;-78
2022/12/28 05:30:14;;;;;;;9.52;5.97;;;;;;;3.51;93.04;98701.50;5048017;28;20049;-79
2022/12/28 05:32:40;;;;;;;10.55;6.50;;;;;;;3.49;93.16;98700.91;5036574;28;20056;-80
2022/12/28 05:35:06;;;;;;;13.95;5.82;;;;;;;3.48;93.23;98698.44;5025095;28;20041;-79
2022/12/28 05:37:31;;;;;;;9.27;6.38;;;;;;;3.55;92.92;98699.25;5051448;28;20040;-80
2022/12/28 05:39:57;;;;;;;10.63;5.55;;;;;;;3.55;92.38;98696.63;5049095;28;20060;-78
2022/12/28 05:42:22;;;;;;;12.98;7.18;;;;;;;3.45;92.72;98681.19;5032725;28;20106;-78
2022/12/28 05:44:47;;;;;;;10.35;6.70;;;;;;;3.60;92.61;98688.91;5030758;28;20025;-79
2022/12/28 05:47:13;;;;;;;6.93;4.13;;;;;;;3.55;92.92;98691.34;5050116;28;20033;-78
2022/12/28 05:49:38;;;;;;;9.25;6.35;;;;;;;3.52;93.20;98674.09;5032297;28;20036;-78
2022/12/28 05:52:03;;;;;;;3.55;2.83;;;;;;;3.49;93.20;98685.06;5048187;28;20041;-78
2022/12/28 05:54:29;;;;;;;9.90;5.50;;;;;;;3.42;93.13;98667.63;5049777;28;20059;-78
2022/12/28 05:56:54;;;;;;;12.73;6.47;;;;;;;3.52;93.39;98683.81;5049938;28;20503;-78
2022/12/28 05:59:20;;;;;;;9.30;5.07;;;;;;;3.52;93.01;98660.06;5051112;28;20133;-78
2022/12/28 06:01:45;;;;;;;9.95;4.55;;;;;;;3.50;92.85;98664.75;5048059;28;20577;-78
2022/12/28 06:04:15;;;;;;;12.10;6.15;;;;;;;3.48;93.80;98669.44;5049465;28;20745;-79
2022/12/28 06:06:40;;;;;;;10.45;6.07;;;;;;;3.52;93.25;98663.53;5043559;28;20075;-79
2022/12/28 06:09:05;;;;;;;12.20;7.45;;;;;;;3.52;93.38;98650.34;5046349;28;20048;-78
2022/12/28 06:11:31;;;;;;;8.23;5.40;;;;;;;3.58;92.67;98659.28;5046701;28;20491;-79
2022/12/28 06:13:57;;;;;;;11.45;5.22;;;;;;;3.50;92.71;98655.03;5046868;28;20029;-79
2022/12/28 06:16:30;;;;;;;8.48;6.03;;;;;;;3.68;93.19;98675.47;5030096;28;20024;-79
2022/12/28 06:18:57;;;;;;;9.07;6.25;;;;;;;3.53;92.97;98644.06;5046860;28;20547;-78
2022/12/28 06:21:25;;;;;;;9.07;4.80;;;;;;;3.61;93.25;98650.91;5046958;28;20166;-79
2022/12/28 06:23:50;;;;;;;10.25;6.75;;;;;;;3.61;93.25;98637.72;5046498;28;20025;-79
2022/12/28 06:26:19;;;;;;;8.75;7.03;;;;;;;3.49;93.27;98632.31;5049158;28;20029;-78
2022/12/28 06:28:45;;;;;;;7.97;4.88;;;;;;;3.68;93.36;98651.72;5049489;28;20025;-78
2022/12/28 06:31:13;;;;;;;10.80;6.72;;;;;;;3.57;93.23;98633.88;5046479;28;20041;-79
2022/12/28 06:33:39;;;;;;;9.77;6.07;;;;;;;3.57;93.33;98629.44;5049453;28;20488;-79
2022/12/28 06:36:11;;;;;;;10.48;5.22;;;;;;;3.55;93.49;98622.75;5046424;28;20040;-78
2022/12/28 06:38:36;;;;;;;8.23;6.15;;;;;;;3.60;93.19;98617.66;5049572;28;20032;-79
2022/12/28 06:41:03;;;;;;;8.38;5.72;;;;;;;3.64;93.78;98624.13;5032518;28;20091;-79
2022/12/28 06:43:33;;;;;;;10.07;6.22;;;;;;;3.63;93.10;98627.78;5046731;28;20041;-78
2022/12/28 06:45:59;;;;;;;10.57;7.00;;;;;;;3.70;92.85;98621.47;5049099;28;20037;-79
2022/12/28 06:48:24;;;;;;;11.20;6.05;;;;;;;3.72;93.06;98631.78;5048338;28;20052;-78
2022/12/28 06:51:01;;;;;;;8.07;5.35;;;;;;;3.69;93.89;98627.75;5051560;28;20098;-78
2022/12/28 06:53:29;;;;;;;11.85;8.07;;;;;;;3.70;93.80;98623.28;5048095;28;20029;-78
2022/12/28 06:55:56;;;;;;;11.70;7.22;;;;;;;3.76;93.37;98627.72;5046783;28;20031;-78
2022/12/28 06:58:22;;;;;;;15.30;9.05;;;;;;;3.72;93.74;98637.88;5047940;28;21955;-78
2022/12/28 07:00:48;;;;;;;11.95;6.97;;;;;;;3.77;93.71;98624.06;5047390;28;20116;-78
2022/12/28 07:03:13;;;;;;;12.05;8.60;;;;;;;3.74;93.62;98633.22;5045787;28;20033;-78
2022/12/28 07:05:39;;;;;;;11.88;8.25;;;;;;;3.75;93.56;98626.09;5042827;28;20035;-80
2022/12/28 07:08:05;;;;;;;10.35;5.40;;;;;;;3.92;93.35;98636.97;5049611;28;20118;-80
2022/12/28 07:10:32;;;;;;;13.50;8.68;;;;;;;3.88;92.92;98633.16;5044354;28;20510;-79
2022/12/28 07:12:58;;;;;;;13.43;7.03;;;;;;;3.85;93.06;98630.91;5047210;28;20124;-80
2022/12/28 07:15:24;;;;;;;8.27;6.18;;;;;;;3.80;93.46;98623.63;5047065;28;20131;-78
2022/12/28 07:17:49;;;;;;;14.43;6.80;;;;;;;3.84;94.06;98629.31;5047762;28;20112;-79
2022/12/28 07:20:14;;;;;;;13.10;8.40;;;;;;;3.83;93.77;98617.94;5048627;28;20472;-79
2022/12/28 07:22:40;;;;;;;11.85;8.43;;;;;;;3.84;93.85;98624.84;5045660;28;20423;-78
2022/12/28 07:25:05;;;;;;;9.85;6.60;;;;;;;3.94;93.36;98633.13;5042006;28;20040;-78
2022/12/28 07:27:31;;;;;;;11.50;7.95;;;;;;;3.90;93.38;98629.28;5045013;28;20049;-78
2022/12/28 07:29:56;;;;;;;8.93;4.80;;;;;;;3.93;93.60;98630.69;5046671;28;21870;-78
2022/12/28 07:32:21;;;;;;;13.50;7.82;;;;;;;3.88;93.48;98641.06;5043665;28;20041;-78
2022/12/28 07:34:47;;;;;;;14.77;7.90;;;;;;;3.90;94.30;98629.28;5043352;28;20028;-78
2022/12/28 07:37:12;;;;;;;10.05;8.00;;;;;;;3.74;94.35;98612.09;5042392;28;20048;-79
2022/12/28 07:39:38;;;;;;;13.60;8.35;;;;;;;3.84;94.25;98624.84;5046123;28;20057;-80
2022/12/28 07:42:05;;;;;;;10.75;8.70;;;;;;;3.91;94.48;98620.31;5049696;28;20032;-79
2022/12/28 07:44:31;;;;;;;9.63;6.13;;;;;;;3.94;93.68;98637.56;5029228;28;20029;-79
2022/12/28 07:46:57;;;;;;;13.25;8.85;;;;;;;3.93;93.87;98634.16;5046899;28;20066;-80
2022/12/28 07:49:22;;;;;;;14.70;8.52;;;;;;;4.01;93.68;98641.81;5042722;28;20033;-79
2022/12/28 07:51:48;;;;;;;10.32;7.50;;;;;;;3.93;93.73;98639.44;5043086;28;20029;-79
2022/12/28 07:54:13;;;;;;;14.93;8.15;;;;;;;3.88;94.52;98620.75;5029461;28;20426;-77
2022/12/28 07:56:39;;;;;;;13.75;7.90;;;;;;;3.99;93.84;98638.56;5046447;28;20140;-78
2022/12/28 07:59:05;;;;;;;13.57;8.38;;;;;;;4.01;93.93;98641.81;5042355;28;20029;-78
2022/12/28 08:01:33;;;;;;;14.75;8.82;;;;;;;4.05;94.37;98637.72;5055579;28;20037;-78
2022/12/28 08:04:01;;;;;;;9.98;6.75;;;;;;;4.03;93.90;98638.94;5025147;28;20029;-77
2022/12/28 08:06:28;;;;;;;15.52;7.97;;;;;;;3.95;94.12;98612.81;5045092;28;20154;-78
2022/12/28 08:08:57;;;;;;;11.43;6.93;;;;;;;3.97;94.67;98618.69;5051210;28;20108;-78
2022/12/28 08:11:25;;;;;;;11.95;8.27;;;;;;;4.11;95.04;98612.28;5049087;28;20066;-78
2022/12/28 08:13:53;;;;;;;13.68;8.30;;;;;;;4.01;95.37;98609.31;5050244;28;20068;-78
2022/12/28 08:16:20;;;;;;;15.85;9.15;;;;;;;3.95;95.83;98621.53;5049691;28;20116;-78
2022/12/28 08:18:46;;;;;;;13.50;8.13;;;;;;;4.02;96.10;98622.28;5032801;28;20021;-78
2022/12/28 08:21:14;;;;;;;10.70;7.57;;;;;;;3.98;96.13;98610.53;5058818;28;20029;-79
2022/12/28 08:23:40;;;;;;;16.50;8.88;;;;;;;4.06;95.42;98618.22;5056455;28;20021;-79
2022/12/28 08:26:05;;;;;;;13.10;7.53;;;;;;;4.04;95.53;98624.75;5048855;28;20431;-79
2022/12/28 08:28:31;;;;;;;13.05;8.65;;;;;;;4.05;95.39;98627.16;5053655;28;20027;-78
2022/12/28 08:30:56;;;;;;;11.80;8.40;;;;;;;4.03;95.90;98607.28;5036430;28;20037;-78
2022/12/28 08:33:22;;;;;;;13.55;9.60;;;;;;;4.04;95.70;98608.91;5059544;28;20061;-79
2022/12/28 08:35:47;;;;;;;9.73;6.22;;;;;;;4.13;95.83;98640.09;5053827;28;20033;-79
2022/12/28 08:38:12;;;;;;;11.80;6.68;;;;;;;4.06;95.16;98612.94;5057905;28;20060;-79
2022/12/28 08:40:38;;;;;;;11.00;6.65;;;;;;;4.00;95.62;98603.22;5056701;28;20128;-79
2022/12/28 08:43:03;;;;;;;10.60;7.95;;;;;;;4.17;96.09;98622.03;5056566;28;20066;-79
2022/12/28 08:45:29;;;;;;;11.07;6.70;;;;;;;4.14;95.88;98606.59;5040709;28;20037;-77
2022/12/28 08:47:54;;;;;;;12.00;8.77;;;;;;;4.11;95.39;98602.53;5039096;28;20040;-79
2022/12/28 08:50:20;;;;;;;17.63;8.05;;;;;;;4.13;95.55;98607.63;5033810;28;20033;-79
2022/12/28 08:52:45;;;;;;;11.50;7.93;;;;;;;4.20;95.07;98598.63;5049403;28;20037;-78
2022/12/28 08:55:11;;;;;;;19.42;7.97;;;;;;;4.36;94.43;98619.25;5056434;28;20037;-78
2022/12/28 08:57:36;;;;;;;8.65;4.88;;;;;;;4.33;95.16;98605.63;5052069;28;20020;-79
2022/12/28 09:00:04;;;;;;;13.43;6.65;;;;;;;4.20;95.86;98592.53;5057784;28;20033;-79
2022/12/28 09:02:29;;;;;;;10.15;6.20;;;;;;;4.30;95.34;98604.22;5066424;28;20039;-78
2022/12/28 09:04:55;;;;;;;14.30;7.15;;;;;;;4.34;95.29;98613.38;5057331;28;20128;-78
2022/12/28 09:07:20;;;;;;;12.52;7.90;;;;;;;4.35;95.00;98607.06;5059733;28;20059;-78
2022/12/28 09:09:45;;;;;;;12.55;7.05;;;;;;;4.37;95.02;98610.28;5048010;28;20560;-78
2022/12/28 09:12:11;;;;;;;11.13;7.72;;;;;;;4.50;94.70;98612.81;5035514;28;20044;-78
2022/12/28 09:14:36;;;;;;;12.15;7.85;;;;;;;4.46;94.61;98605.53;5049690;28;20116;-79
2022/12/28 09:17:01;;;;;;;11.23;7.00;;;;;;;4.53;95.16;98609.75;5052733;28;20029;-79
2022/12/28 09:19:27;;;;;;;7.90;4.40;;;;;;;4.38;95.80;98606.63;5051098;28;20500;-79
2022/12/28 09:21:54;;;;;;;13.32;7.78;;;;;;;4.59;95.20;98609.94;5034980;28;20029;-78
2022/12/28 09:24:20;;;;;;;11.88;5.75;;;;;;;4.45;95.28;98603.94;5051451;28;20059;-79
2022/12/28 09:26:46;;;;;;;15.50;8.60;;;;;;;4.46;95.95;98618.75;5053476;28;20040;-78
2022/12/28 09:29:12;;;;;;;10.30;6.10;;;;;;;4.47;95.22;98615.09;5048418;28;20033;-78
2022/12/28 09:31:39;;;;;;;12.68;6.90;;;;;;;4.47;94.99;98605.34;5051894;28;20530;-79
2022/12/28 09:34:06;;;;;;;11.80;8.68;;;;;;;4.54;95.58;98602.66;5036492;28;20033;-78
2022/12/28 09:36:34;;;;;;;14.88;8.00;;;;;;;4.54;95.43;98605.28;5056210;28;20081;-79
2022/12/28 09:39:03;;;;;;;12.68;8.52;;;;;;;4.55;95.50;98610.34;5048734;28;20405;-79
2022/12/28 09:41:37;;;;;;;10.15;6.75;;;;;;;4.56;95.79;98611.16;5035101;28;20068;-78
2022/12/28 09:44:25;;;;;;;11.70;7.25;;;;;;;4.58;94.83;98598.53;5048984;28;20048;-79
2022/12/28 09:47:04;;;;;;;10.77;6.55;;;;;;;4.60;95.53;98600.97;5049908;28;20103;-79
2022/12/28 09:49:42;;;;;;;9.70;5.78;;;;;;;4.62;94.57;98585.69;5053884;28;20029;-79
2022/12/28 09:52:24;;;;;;;8.85;5.75;;;;;;;4.66;94.34;98605.38;5055471;28;20039;-79
2022/12/28 09:54:49;;;;;;;5.95;4.82;;;;;;;4.66;94.13;98586.88;5059893;28;20070;-80
2022/12/28 09:57:17;;;;;;;8.13;4.15;;;;;;;4.70;93.68;98596.00;5021122;28;20033;-79
2022/12/28 09:59:45;;;;;;;15.70;8.25;;;;;;;4.68;93.74;98582.19;5055310;28;20450;-79
2022/12/28 10:02:24;;;;;;;11.18;6.22;;;;;;;4.77;93.33;98588.81;5054985;28;20131;-79
2022/12/28 10:04:50;;;;;;;11.90;6.93;;;;;;;4.79;93.19;98581.47;5058132;28;20496;-79
2022/12/28 10:07:16;;;;;;;14.18;7.50;;;;;;;4.82;93.12;98581.03;5057681;28;20032;-79
2022/12/28 10:09:42;;;;;;;10.77;5.10;;;;;;;4.80;93.16;98589.22;5056369;28;20029;-78
2022/12/28 10:12:14;;;;;;;13.32;5.65;;;;;;;4.83;93.32;98609.91;5056540;28;20103;-78
2022/12/28 10:14:40;;;;;;;8.43;4.50;;;;;;;4.81;92.38;98582.06;5038780;28;20025;-78
2022/12/28 10:17:06;;;;;;;8.85;5.63;;;;;;;4.87;92.82;98583.84;5056023;28;20044;-79
2022/12/28 10:19:32;;;;;;;9.15;5.35;;;;;;;4.78;92.46;98567.47;5056666;28;20055;-78
2022/12/28 10:21:59;;;;;;;15.55;6.18;;;;;;;4.92;92.30;98578.69;5058018;28;20384;-78
2022/12/28 10:24:25;;;;;;;8.75;4.90;;;;;;;4.96;92.44;98577.22;5060555;28;20029;-78
2022/12/28 10:26:51;;;;;;;7.50;5.32;;;;;;;5.01;92.56;98580.03;5059343;28;20086;-79
2022/12/28 10:29:20;;;;;;;8.90;5.30;;;;;;;5.03;91.99;98567.41;5056112;28;20043;-79
2022/12/28 10:31:58;;;;;;;8.95;5.88;;;;;;;5.02;91.82;98556.00;5053679;28;20025;-78
2022/12/28 10:34:24;;;;;;;9.15;5.63;;;;;;;5.07;91.66;98563.28;5056897;28;20045;-78
2022/12/28 10:36:51;;;;;;;9.07;5.25;;;;;;;5.01;91.51;98558.88;5059125;28;20031;-79
2022/12/28 10:39:28;;;;;;;7.07;5.03;;;;;;;4.99;92.04;98539.78;5058210;28;20032;-79
2022/12/28 10:41:57;;;;;;;6.03;3.45;;;;;;;5.05;91.91;98560.88;5059485;28;20052;-78
2022/12/28 10:44:37;;;;;;;7.57;5.10;;;;;;;5.03;91.76;98541.75;5058269;28;20032;-78
2022/12/28 10:47:15;;;;;;;7.90;5.18;;;;;;;5.11;92.16;98544.09;5043935;28;20043;-78
2022/12/28 10:49:48;;;;;;;15.60;6.07;;;;;;;5.10;91.55;98534.56;5053890;28;20059;-78
2022/12/28 10:52:13;;;;;;;6.32;4.22;;;;;;;5.19;91.28;98545.66;5039642;28;20029;-79
2022/12/28 10:54:39;;;;;;;4.50;3.00;;;;;;;5.21;91.26;98538.31;5052857;28;20029;-79
2022/12/28 10:57:05;;;;;;;6.93;5.25;;;;;;;5.20;91.59;98542.78;5048483;28;20074;-79
2022/12/28 10:59:31;;;;;;;9.43;4.45;;;;;;;5.20;91.11;98529.56;5035522;28;20036;-78
2022/12/28 11:02:31;;;;;;;10.85;4.40;;;;;;;5.29;91.10;98532.72;5050577;28;20108;-77
2022/12/28 11:05:02;;;;;;;7.93;5.30;;;;;;;5.27;91.54;98524.19;5040168;28;20044;-78
2022/12/28 11:07:36;;;;;;;7.53;4.82;;;;;;;5.24;91.33;98522.78;5056076;28;20029;-78
2022/12/28 11:10:14;;;;;;;6.60;3.88;;;;;;;5.31;90.74;98517.41;5049196;28;20030;-79
2022/12/28 11:12:43;;;;;;;7.50;5.35;;;;;;;5.33;90.76;98520.66;5022779;28;20040;-79
2022/12/28 11:15:16;;;;;;;6.28;4.53;;;;;;;5.39;90.83;98518.97;5055431;28;20036;-78
2022/12/28 11:17:43;;;;;;;4.90;3.88;;;;;;;5.39;91.27;98519.78;5048775;28;20028;-79
2022/12/28 11:20:23;;;;;;;8.10;4.25;;;;;;;5.36;91.15;98517.56;5054075;28;20088;-79
2022/12/28 11:22:49;;;;;;;9.77;3.70;;;;;;;5.37;90.78;98502.50;5034919;28;20028;-78
2022/12/28 11:25:17;;;;;;;5.35;3.13;;;;;;;5.37;90.76;98499.84;5057069;28;20037;-78
2022/12/28 11:27:44;;;;;;;6.68;3.30;;;;;;;5.47;90.55;98498.28;5049797;28;20397;-79
2022/12/28 11:30:15;;;;;;;6.07;4.28;;;;;;;5.42;90.69;98489.41;5055317;28;20033;-79
2022/12/28 11:32:47;;;;;;;9.38;4.03;;;;;;;5.40;90.54;98494.91;5052696;28;20032;-79
2022/12/28 11:35:19;;;;;;;6.65;5.32;;;;;;;5.46;90.47;98488.72;5058868;28;20473;-79
2022/12/28 11:37:52;;;;;;;5.65;3.30;;;;;;;5.52;90.27;98493.13;5055075;28;20033;-77
2022/12/28 11:40:58;;;;;;;7.70;3.80;;;;;;;5.63;89.65;98492.38;5050725;28;20412;-78
2022/12/28 11:43:38;;;;;;;5.03;3.53;;;;;;;5.65;89.75;98500.91;4951760;28;20113;-78
2022/12/28 11:46:20;;;;;;;7.55;3.80;;;;;;;5.67;90.31;98495.38;4988756;28;20050;-78
2022/12/28 11:49:22;;;;;;;5.88;3.58;;;;;;;5.61;90.04;98493.63;5020979;28;20056;-78
2022/12/28 11:52:13;;;;;;;4.97;2.53;;;;;;;5.63;89.37;98487.09;5045431;28;20754;-80
2022/12/28 11:54:49;;;;;;;5.60;3.63;;;;;;;5.62;90.11;98480.16;5053763;28;20024;-78
2022/12/28 11:57:37;;;;;;;5.68;3.55;;;;;;;5.53;89.70;98478.03;5045485;28;20032;-78
2022/12/28 12:00:23;;;;;;;9.48;2.83;;;;;;;5.60;89.93;98490.16;5043170;28;20029;-80
2022/12/28 12:02:56;;;;;;;3.53;3.13;;;;;;;5.57;89.65;98476.59;5032143;28;20040;-78
2022/12/28 12:05:34;;;;;;;4.90;3.80;;;;;;;5.59;89.80;98485.88;5028010;28;20075;-79
2022/12/28 12:07:59;;;;;;;9.50;3.28;;;;;;;5.61;90.31;98475.09;5052370;28;20141;-80
2022/12/28 12:10:34;;;;;;;8.25;3.63;;;;;;;5.66;90.17;98488.44;5027827;28;20397;-79
2022/12/28 12:13:21;;;;;;;5.25;3.28;;;;;;;5.67;89.13;98468.88;5049505;28;20102;-79